Time;durP1;ratioP1;P1;durP2;ratioP2;P2;SDS_P1;SDS_P2;PMS_P1;PMS_P2;Temp;Humidity;BMP_temperature;BMP_pressure;BME280_temperature;BME280_humidity;BME280_pressure;Samples;Min_cycle;Max_cycle;Signal;HPM_P1;HPM_P2
2022/09/29 00:00:17;;;;;;;59.63;4.27;;;;;;;;;;5032979;28;20705;-66
2022/09/29 00:02:44;;;;;;;59.73;4.30;;;;;;;;;;5033616;28;20946;-66
2022/09/29 00:05:11;;;;;;;58.70;3.10;;;;;;;;;;5033863;28;20751;-66
2022/09/29 00:07:38;;;;;;;58.50;3.33;;;;;;;;;;5033805;28;20468;-66
2022/09/29 00:10:07;;;;;;;60.00;4.10;;;;;;;;;;5033244;28;20457;-66
2022/09/29 00:12:34;;;;;;;59.07;3.07;;;;;;;;;;5033662;28;20488;-66
2022/09/29 00:15:01;;;;;;;58.30;2.80;;;;;;;;;;5033300;28;20469;-66
2022/09/29 00:17:28;;;;;;;58.40;2.90;;;;;;;;;;5033589;28;20472;-66
2022/09/29 00:19:55;;;;;;;58.40;3.17;;;;;;;;;;5033290;28;20453;-66
2022/09/29 00:22:22;;;;;;;60.07;3.40;;;;;;;;;;5033241;28;20441;-67
2022/09/29 00:24:49;;;;;;;58.90;3.33;;;;;;;;;;5033447;28;21190;-66
2022/09/29 00:27:18;;;;;;;59.67;4.17;;;;;;;;;;5033479;28;20456;-66
2022/09/29 00:29:45;;;;;;;58.20;2.80;;;;;;;;;;5033207;28;20451;-66
2022/09/29 00:32:12;;;;;;;58.87;3.33;;;;;;;;;;5032930;28;20539;-67
2022/09/29 00:34:39;;;;;;;58.37;3.10;;;;;;;;;;5032958;28;20492;-66
2022/09/29 00:37:06;;;;;;;60.40;3.73;;;;;;;;;;5033204;28;20449;-66
2022/09/29 00:39:34;;;;;;;59.77;3.27;;;;;;;;;;5032713;28;20449;-66
2022/09/29 00:42:01;;;;;;;58.70;3.07;;;;;;;;;;5033022;28;20799;-66
2022/09/29 00:44:46;;;;;;;58.37;3.20;;;;;;;;;;5032969;28;20469;-66
2022/09/29 00:47:16;;;;;;;59.17;3.47;;;;;;;;;;5033102;28;20451;-66
2022/09/29 00:49:45;;;;;;;59.23;3.80;;;;;;;;;;5032774;28;20452;-66
2022/09/29 00:52:14;;;;;;;58.67;3.07;;;;;;;;;;5032734;28;20457;-66
2022/09/29 00:54:42;;;;;;;58.87;3.13;;;;;;;;;;5032738;28;20843;-66
2022/09/29 00:57:12;;;;;;;58.17;2.90;;;;;;;;;;5032957;28;20456;-65
2022/09/29 00:59:41;;;;;;;59.40;4.10;;;;;;;;;;5032409;28;20834;-67
2022/09/29 01:02:08;;;;;;;58.47;3.30;;;;;;;;;;5032780;28;20453;-66
2022/09/29 01:04:36;;;;;;;59.00;3.00;;;;;;;;;;5032706;28;20471;-67
2022/09/29 01:07:03;;;;;;;60.43;3.43;;;;;;;;;;5032947;28;20812;-66
2022/09/29 01:09:32;;;;;;;58.43;2.90;;;;;;;;;;5032501;28;20450;-66
2022/09/29 01:12:00;;;;;;;58.70;3.53;;;;;;;;;;5031586;28;20938;-67
2022/09/29 01:14:28;;;;;;;58.57;3.07;;;;;;;;;;5032164;28;20493;-68
2022/09/29 01:16:55;;;;;;;58.80;3.30;;;;;;;;;;5032327;28;20453;-68
2022/09/29 01:19:28;;;;;;;58.03;2.73;;;;;;;;;;5032155;28;20448;-67
2022/09/29 01:22:02;;;;;;;59.20;3.50;;;;;;;;;;5031829;28;20445;-67
2022/09/29 01:24:42;;;;;;;58.20;3.00;;;;;;;;;;5032040;28;21001;-66
2022/09/29 01:27:14;;;;;;;59.77;4.13;;;;;;;;;;5032240;28;20457;-67
2022/09/29 01:30:03;;;;;;;58.20;2.85;;;;;;;;;;5031971;28;20910;-67
2022/09/29 01:32:35;;;;;;;58.50;3.30;;;;;;;;;;5032394;28;20639;-67
2022/09/29 01:35:07;;;;;;;58.20;2.90;;;;;;;;;;5031937;28;20485;-66
2022/09/29 01:37:43;;;;;;;59.57;3.57;;;;;;;;;;5032266;28;20438;-67
2022/09/29 01:40:14;;;;;;;59.83;3.47;;;;;;;;;;5031861;28;20898;-66
2022/09/29 01:42:45;;;;;;;58.50;2.77;;;;;;;;;;5031832;28;20450;-66
2022/09/29 01:45:14;;;;;;;58.50;2.97;;;;;;;;;;5032434;28;20465;-67
2022/09/29 01:47:44;;;;;;;58.10;3.00;;;;;;;;;;5032197;28;20449;-66
2022/09/29 01:50:13;;;;;;;58.70;3.60;;;;;;;;;;5031747;28;20935;-66
2022/09/29 01:52:42;;;;;;;58.40;3.40;;;;;;;;;;5031757;28;20459;-66
2022/09/29 01:55:10;;;;;;;58.90;3.77;;;;;;;;;;5031682;28;20475;-67
2022/09/29 01:57:40;;;;;;;58.37;3.33;;;;;;;;;;5031960;28;20449;-66
2022/09/29 02:00:08;;;;;;;58.70;3.30;;;;;;;;;;5031689;28;20441;-66
2022/09/29 02:02:39;;;;;;;58.10;2.80;;;;;;;;;;5031998;28;20453;-66
2022/09/29 02:05:10;;;;;;;58.27;2.87;;;;;;;;;;5031993;28;20854;-66
2022/09/29 02:07:39;;;;;;;59.17;3.57;;;;;;;;;;5031612;28;20436;-67
2022/09/29 02:10:11;;;;;;;58.40;3.63;;;;;;;;;;5031574;28;20972;-66
2022/09/29 02:12:39;;;;;;;58.90;3.87;;;;;;;;;;5031913;28;20433;-66
2022/09/29 02:15:09;;;;;;;58.27;3.03;;;;;;;;;;5031589;28;20477;-66
2022/09/29 02:17:37;;;;;;;58.87;3.10;;;;;;;;;;5031862;28;20449;-66
2022/09/29 02:20:05;;;;;;;61.67;3.20;;;;;;;;;;5031270;28;20445;-66
2022/09/29 02:22:35;;;;;;;57.97;3.00;;;;;;;;;;5033496;28;20997;-66
2022/09/29 02:25:02;;;;;;;58.90;3.33;;;;;;;;;;5035457;28;20472;-66
2022/09/29 02:27:29;;;;;;;63.93;3.77;;;;;;;;;;5035437;28;20451;-67
2022/09/29 02:29:58;;;;;;;59.43;3.00;;;;;;;;;;5035499;28;20449;-66
2022/09/29 02:32:25;;;;;;;59.07;3.27;;;;;;;;;;5035571;28;20496;-66
2022/09/29 02:34:53;;;;;;;59.20;3.83;;;;;;;;;;5035001;28;20496;-66
2022/09/29 02:37:27;;;;;;;58.20;2.80;;;;;;;;;;5035213;28;20455;-66
2022/09/29 02:40:02;;;;;;;58.90;3.97;;;;;;;;;;5035490;28;20848;-66
2022/09/29 02:42:32;;;;;;;58.40;2.90;;;;;;;;;;5054149;28;20452;-68
2022/09/29 02:45:07;;;;;;;58.20;2.80;;;;;;;;;;5054911;28;20941;-68
2022/09/29 02:47:40;;;;;;;60.30;4.83;;;;;;;;;;5055295;28;20801;-67
2022/09/29 02:50:18;;;;;;;58.20;3.13;;;;;;;;;;5054691;28;20444;-66
2022/09/29 02:52:51;;;;;;;58.33;3.07;;;;;;;;;;5054852;28;20444;-67
2022/09/29 02:55:21;;;;;;;58.20;3.00;;;;;;;;;;5055048;28;20464;-66
2022/09/29 02:57:50;;;;;;;58.07;2.70;;;;;;;;;;5055025;28;20450;-66
2022/09/29 03:00:18;;;;;;;58.80;3.40;;;;;;;;;;5054886;28;20863;-66
2022/09/29 03:02:46;;;;;;;58.30;3.20;;;;;;;;;;5055014;28;20452;-66
2022/09/29 03:05:14;;;;;;;58.50;3.10;;;;;;;;;;5054926;28;20468;-66
2022/09/29 03:07:41;;;;;;;59.77;3.53;;;;;;;;;;5054908;28;20814;-66
2022/09/29 03:10:09;;;;;;;58.30;3.10;;;;;;;;;;5054340;28;20448;-66
2022/09/29 03:12:38;;;;;;;58.37;3.37;;;;;;;;;;5054531;28;20941;-67
2022/09/29 03:15:06;;;;;;;58.40;2.77;;;;;;;;;;5054226;28;20488;-66
2022/09/29 03:17:33;;;;;;;58.60;3.03;;;;;;;;;;5054185;28;20949;-66
2022/09/29 03:20:00;;;;;;;59.27;3.43;;;;;;;;;;5054451;28;20440;-69
2022/09/29 03:22:27;;;;;;;59.10;3.50;;;;;;;;;;5054178;28;20444;-66
2022/09/29 03:24:54;;;;;;;60.80;3.67;;;;;;;;;;5054525;28;20456;-68
2022/09/29 03:27:22;;;;;;;58.10;3.00;;;;;;;;;;5054610;28;20444;-66
2022/09/29 03:29:50;;;;;;;58.20;3.17;;;;;;;;;;5054323;28;20440;-67
2022/09/29 03:32:18;;;;;;;59.53;3.10;;;;;;;;;;5054160;28;20963;-66
2022/09/29 03:34:45;;;;;;;58.73;3.30;;;;;;;;;;5053002;28;20496;-69
2022/09/29 03:37:12;;;;;;;58.07;2.70;;;;;;;;;;5054331;28;20457;-66
2022/09/29 03:39:39;;;;;;;58.50;3.20;;;;;;;;;;5053828;28;20940;-67
2022/09/29 03:42:06;;;;;;;58.10;2.73;;;;;;;;;;5053932;28;20452;-66
2022/09/29 03:44:33;;;;;;;58.10;2.90;;;;;;;;;;5053967;28;20468;-66
2022/09/29 03:47:02;;;;;;;58.57;3.10;;;;;;;;;;5053793;28;20444;-66
2022/09/29 03:49:29;;;;;;;60.30;4.17;;;;;;;;;;5053860;28;20459;-66
2022/09/29 03:51:56;;;;;;;58.80;3.03;;;;;;;;;;5054071;28;20455;-67
2022/09/29 03:54:26;;;;;;;58.80;3.43;;;;;;;;;;5054018;28;21138;-66
2022/09/29 03:56:53;;;;;;;58.60;3.37;;;;;;;;;;5054025;28;20449;-66
2022/09/29 03:59:20;;;;;;;58.87;3.43;;;;;;;;;;5053770;28;20452;-68
2022/09/29 04:01:47;;;;;;;58.20;3.30;;;;;;;;;;5053901;28;20455;-66
2022/09/29 04:04:16;;;;;;;59.87;3.17;;;;;;;;;;5053413;28;20460;-67
2022/09/29 04:06:43;;;;;;;61.33;4.63;;;;;;;;;;5053516;28;20455;-66
2022/09/29 04:09:10;;;;;;;58.60;3.20;;;;;;;;;;5053433;28;20460;-68
2022/09/29 04:11:37;;;;;;;59.40;3.23;;;;;;;;;;5053399;28;20448;-66
2022/09/29 04:14:04;;;;;;;58.60;3.53;;;;;;;;;;5053522;28;20472;-66
2022/09/29 04:16:32;;;;;;;58.40;3.13;;;;;;;;;;5053631;28;20447;-66
2022/09/29 04:18:59;;;;;;;59.90;3.50;;;;;;;;;;5053264;28;20463;-66
2022/09/29 04:21:27;;;;;;;58.20;2.87;;;;;;;;;;5053524;28;20454;-66
2022/09/29 04:23:54;;;;;;;58.77;3.40;;;;;;;;;;5053352;28;20448;-68
2022/09/29 04:26:21;;;;;;;58.50;3.10;;;;;;;;;;5053428;28;20448;-66
2022/09/29 04:28:48;;;;;;;59.20;3.40;;;;;;;;;;5052960;28;20968;-66
2022/09/29 04:31:16;;;;;;;58.47;2.70;;;;;;;;;;5053340;28;20542;-66
2022/09/29 04:33:43;;;;;;;59.47;3.87;;;;;;;;;;5052751;28;20494;-67
2022/09/29 04:36:10;;;;;;;59.60;4.20;;;;;;;;;;5053046;28;20474;-66
2022/09/29 04:38:39;;;;;;;58.37;3.10;;;;;;;;;;5052969;28;20245;-67
2022/09/29 04:41:06;;;;;;;58.87;3.83;;;;;;;;;;5052882;28;20460;-66
2022/09/29 04:43:33;;;;;;;58.07;3.00;;;;;;;;;;5052718;28;20959;-67
2022/09/29 04:46:04;;;;;;;59.20;3.67;;;;;;;;;;5052830;28;20479;-66
2022/09/29 04:48:31;;;;;;;59.00;3.30;;;;;;;;;;5052803;28;20445;-72
2022/09/29 04:50:59;;;;;;;59.40;4.00;;;;;;;;;;5052632;28;20452;-66
2022/09/29 04:53:26;;;;;;;58.60;3.30;;;;;;;;;;5052665;28;20471;-67
2022/09/29 04:55:54;;;;;;;59.00;3.83;;;;;;;;;;5052537;28;20222;-66
2022/09/29 04:58:21;;;;;;;59.65;3.00;;;;;;;;;;5052179;28;20196;-68
2022/09/29 05:00:48;;;;;;;58.50;3.28;;;;;;;;;;5052567;28;20607;-66
2022/09/29 05:03:16;;;;;;;58.37;3.00;;;;;;;;;;5052481;28;20210;-66
2022/09/29 05:05:43;;;;;;;58.27;2.97;;;;;;;;;;5052328;28;20467;-66
2022/09/29 05:08:10;;;;;;;58.90;3.30;;;;;;;;;;5052323;28;20805;-66
2022/09/29 05:10:37;;;;;;;58.70;3.20;;;;;;;;;;5049219;28;20857;-67
2022/09/29 05:13:05;;;;;;;58.42;3.13;;;;;;;;;;5042561;28;20202;-67
2022/09/29 05:15:32;;;;;;;58.65;3.65;;;;;;;;;;5052555;28;20608;-67
2022/09/29 05:18:02;;;;;;;60.03;3.35;;;;;;;;;;5050212;28;20250;-68
2022/09/29 05:20:29;;;;;;;58.17;2.95;;;;;;;;;;5034478;28;20198;-66
2022/09/29 05:22:58;;;;;;;58.70;3.63;;;;;;;;;;5032546;28;20206;-66
2022/09/29 05:25:26;;;;;;;62.10;4.00;;;;;;;;;;5032142;28;20487;-66
2022/09/29 05:27:53;;;;;;;60.33;4.78;;;;;;;;;;5031913;28;20449;-66
2022/09/29 05:30:21;;;;;;;59.00;3.53;;;;;;;;;;5032279;28;20202;-66
2022/09/29 05:32:48;;;;;;;60.00;4.30;;;;;;;;;;5032264;28;20449;-67
2022/09/29 05:35:15;;;;;;;58.67;3.53;;;;;;;;;;5031767;28;20497;-66
2022/09/29 05:37:42;;;;;;;59.75;3.90;;;;;;;;;;5032067;28;20447;-66
2022/09/29 05:40:10;;;;;;;59.25;3.78;;;;;;;;;;5031768;28;20595;-66
2022/09/29 05:42:37;;;;;;;59.47;4.03;;;;;;;;;;5032153;28;20625;-66
2022/09/29 05:45:05;;;;;;;60.20;3.58;;;;;;;;;;5031633;28;20465;-66
2022/09/29 05:47:33;;;;;;;58.83;3.63;;;;;;;;;;5032083;28;20210;-65
2022/09/29 05:50:02;;;;;;;60.30;4.00;;;;;;;;;;5031653;28;20206;-66
2022/09/29 05:52:29;;;;;;;58.37;3.37;;;;;;;;;;5031697;28;20450;-66
2022/09/29 05:54:56;;;;;;;59.50;3.70;;;;;;;;;;5031799;28;20489;-66
2022/09/29 05:57:23;;;;;;;58.70;3.30;;;;;;;;;;5035197;28;20789;-67
2022/09/29 05:59:50;;;;;;;60.28;5.07;;;;;;;;;;5038389;28;20445;-66
2022/09/29 06:02:17;;;;;;;59.37;3.70;;;;;;;;;;5038394;28;20206;-66
2022/09/29 06:04:46;;;;;;;60.97;3.57;;;;;;;;;;5038583;28;20836;-66
2022/09/29 06:07:13;;;;;;;59.20;3.30;;;;;;;;;;5038476;28;20453;-65
2022/09/29 06:09:40;;;;;;;59.67;3.87;;;;;;;;;;5038256;28;20456;-66
2022/09/29 06:12:07;;;;;;;58.70;3.50;;;;;;;;;;5038580;28;20534;-66
2022/09/29 06:14:34;;;;;;;59.87;3.80;;;;;;;;;;5038034;28;20503;-66
2022/09/29 06:17:01;;;;;;;58.10;2.77;;;;;;;;;;5038517;28;20455;-69
2022/09/29 06:19:28;;;;;;;58.30;3.00;;;;;;;;;;5038293;28;20448;-66
2022/09/29 06:21:56;;;;;;;58.50;3.20;;;;;;;;;;5038436;28;20452;-66
2022/09/29 06:24:24;;;;;;;60.00;4.30;;;;;;;;;;5038363;28;20469;-67
2022/09/29 06:26:51;;;;;;;59.13;3.67;;;;;;;;;;5038222;28;20451;-66
2022/09/29 06:29:18;;;;;;;59.27;4.07;;;;;;;;;;5038095;28;20449;-66
2022/09/29 06:31:45;;;;;;;59.63;3.50;;;;;;;;;;5038390;28;20449;-66
2022/09/29 06:34:12;;;;;;;58.37;3.13;;;;;;;;;;5038010;28;20477;-67
2022/09/29 06:39:27;;;;;;;59.23;3.60;;;;;;;;;;5037833;28;20428;-66
2022/09/29 06:41:55;;;;;;;58.30;3.23;;;;;;;;;;5038047;28;20449;-66
2022/09/29 06:44:23;;;;;;;59.37;4.67;;;;;;;;;;5038060;28;20469;-66
2022/09/29 06:46:51;;;;;;;58.90;3.77;;;;;;;;;;5038293;28;20557;-66
2022/09/29 06:49:19;;;;;;;58.27;3.17;;;;;;;;;;5037843;28;20463;-67
2022/09/29 06:51:46;;;;;;;59.40;3.63;;;;;;;;;;5038179;28;20483;-65
2022/09/29 06:54:14;;;;;;;58.17;2.90;;;;;;;;;;5037710;28;20453;-66
2022/09/29 06:56:42;;;;;;;58.40;3.00;;;;;;;;;;5037902;28;20455;-66
2022/09/29 06:59:10;;;;;;;59.43;3.73;;;;;;;;;;5037516;28;20544;-66
2022/09/29 07:01:37;;;;;;;58.37;3.30;;;;;;;;;;5038107;28;20448;-68
2022/09/29 07:04:04;;;;;;;58.47;3.23;;;;;;;;;;5037941;28;20445;-66
2022/09/29 07:06:31;;;;;;;58.20;3.30;;;;;;;;;;5037765;28;20445;-69
2022/09/29 07:09:00;;;;;;;58.77;3.13;;;;;;;;;;5034914;28;20476;-66
2022/09/29 07:11:27;;;;;;;58.47;3.97;;;;;;;;;;5034920;28;20960;-68
2022/09/29 07:13:57;;;;;;;58.97;4.10;;;;;;;;;;5053162;28;20535;-66
2022/09/29 07:16:24;;;;;;;58.60;3.33;;;;;;;;;;5054386;28;21011;-66
2022/09/29 07:18:52;;;;;;;59.37;4.13;;;;;;;;;;5054198;28;20456;-67
2022/09/29 07:21:20;;;;;;;58.60;3.43;;;;;;;;;;5054440;28;20967;-66
2022/09/29 07:23:48;;;;;;;58.37;3.30;;;;;;;;;;5054619;28;20822;-67
2022/09/29 07:26:16;;;;;;;58.17;3.20;;;;;;;;;;5054140;28;20470;-66
2022/09/29 07:28:43;;;;;;;58.27;3.47;;;;;;;;;;5054188;28;20443;-66
2022/09/29 07:31:13;;;;;;;58.10;2.90;;;;;;;;;;5054534;28;20452;-66
2022/09/29 07:33:40;;;;;;;58.77;3.40;;;;;;;;;;5054377;28;20460;-66
2022/09/29 07:36:07;;;;;;;58.30;3.40;;;;;;;;;;5054012;28;20523;-66
2022/09/29 07:38:34;;;;;;;58.00;2.97;;;;;;;;;;5054063;28;20459;-66
2022/09/29 07:41:02;;;;;;;58.30;3.00;;;;;;;;;;5054209;28;20449;-66
2022/09/29 07:43:30;;;;;;;58.67;3.30;;;;;;;;;;5054130;28;20543;-66
2022/09/29 07:45:58;;;;;;;58.60;3.40;;;;;;;;;;5053846;28;20472;-66
2022/09/29 07:48:27;;;;;;;58.77;3.77;;;;;;;;;;5054060;28;20488;-69
2022/09/29 07:51:01;;;;;;;58.77;3.40;;;;;;;;;;5053754;28;20536;-66
2022/09/29 07:53:28;;;;;;;58.40;3.40;;;;;;;;;;5054039;28;20429;-67
2022/09/29 07:55:55;;;;;;;58.60;3.37;;;;;;;;;;5053948;28;20494;-66
2022/09/29 07:58:23;;;;;;;58.67;3.70;;;;;;;;;;5054141;28;20522;-66
2022/09/29 08:00:53;;;;;;;58.17;3.50;;;;;;;;;;5053569;28;20452;-66
2022/09/29 08:03:21;;;;;;;58.87;3.80;;;;;;;;;;5053935;28;20439;-67
2022/09/29 08:05:49;;;;;;;59.17;3.53;;;;;;;;;;5053375;28;20979;-66
2022/09/29 08:08:16;;;;;;;59.80;3.67;;;;;;;;;;5053583;28;20455;-66
2022/09/29 08:10:43;;;;;;;59.57;3.57;;;;;;;;;;5053614;28;20448;-66
2022/09/29 08:13:11;;;;;;;59.40;3.93;;;;;;;;;;5053541;28;20479;-66
2022/09/29 08:15:38;;;;;;;62.23;3.80;;;;;;;;;;5053568;28;20495;-66
2022/09/29 08:18:05;;;;;;;59.03;3.50;;;;;;;;;;5053600;28;20448;-68
2022/09/29 08:20:32;;;;;;;59.23;4.10;;;;;;;;;;5052970;28;20448;-66
2022/09/29 08:23:00;;;;;;;60.10;4.03;;;;;;;;;;5053514;28;20453;-67
2022/09/29 08:25:27;;;;;;;60.30;3.60;;;;;;;;;;5053702;28;20470;-66
2022/09/29 08:27:54;;;;;;;59.97;4.10;;;;;;;;;;5053367;28;20443;-66
2022/09/29 08:30:22;;;;;;;59.60;3.77;;;;;;;;;;5052881;28;20941;-66
2022/09/29 08:32:51;;;;;;;59.43;3.30;;;;;;;;;;5053205;28;20448;-66
2022/09/29 08:35:19;;;;;;;58.40;3.53;;;;;;;;;;5052805;28;20502;-66
2022/09/29 08:37:47;;;;;;;58.10;3.13;;;;;;;;;;5053126;28;20463;-66
2022/09/29 08:40:16;;;;;;;60.17;4.50;;;;;;;;;;5052886;28;20501;-66
2022/09/29 08:42:49;;;;;;;58.90;3.40;;;;;;;;;;5052765;28;20454;-66
2022/09/29 08:45:21;;;;;;;58.77;3.67;;;;;;;;;;5052977;28;20469;-66
2022/09/29 08:47:49;;;;;;;58.50;3.30;;;;;;;;;;5052965;28;20821;-67
2022/09/29 08:50:27;;;;;;;59.47;4.10;;;;;;;;;;5052834;28;20491;-66
2022/09/29 08:52:55;;;;;;;58.10;3.00;;;;;;;;;;5052975;28;20442;-66
2022/09/29 08:55:26;;;;;;;58.60;2.90;;;;;;;;;;5052734;28;20490;-66
2022/09/29 08:57:55;;;;;;;58.00;2.80;;;;;;;;;;5052829;28;20435;-66
2022/09/29 09:00:24;;;;;;;58.00;2.97;;;;;;;;;;5052583;28;20449;-66
2022/09/29 09:02:59;;;;;;;58.40;3.33;;;;;;;;;;5052410;28;20460;-66
2022/09/29 09:05:34;;;;;;;58.90;3.30;;;;;;;;;;5052703;28;20465;-66
2022/09/29 09:08:03;;;;;;;58.30;2.50;;;;;;;;;;5052333;28;20466;-66
2022/09/29 09:10:39;;;;;;;59.20;3.13;;;;;;;;;;5052331;28;20456;-66
2022/09/29 09:13:10;;;;;;;58.20;3.00;;;;;;;;;;5052573;28;20442;-66
2022/09/29 09:15:53;;;;;;;58.43;3.40;;;;;;;;;;5052519;28;20487;-66
2022/09/29 09:18:33;;;;;;;58.07;2.67;;;;;;;;;;5050319;28;20463;-65
2022/09/29 09:21:04;;;;;;;58.33;3.13;;;;;;;;;;5052369;28;20435;-68
2022/09/29 09:23:36;;;;;;;58.20;3.17;;;;;;;;;;5052276;28;20451;-66
2022/09/29 09:26:05;;;;;;;58.70;2.90;;;;;;;;;;5052356;28;20460;-67
2022/09/29 09:28:34;;;;;;;60.37;3.50;;;;;;;;;;5052087;28;20440;-66
2022/09/29 09:31:04;;;;;;;58.50;2.90;;;;;;;;;;5051785;28;20445;-67
2022/09/29 09:33:33;;;;;;;59.80;2.93;;;;;;;;;;5051677;28;20440;-68
2022/09/29 09:36:03;;;;;;;58.27;2.93;;;;;;;;;;5052126;28;20586;-66
2022/09/29 09:38:38;;;;;;;58.30;2.70;;;;;;;;;;5051801;28;20908;-66
2022/09/29 09:41:07;;;;;;;57.87;2.70;;;;;;;;;;5051872;28;20438;-67
2022/09/29 09:43:37;;;;;;;58.30;3.30;;;;;;;;;;5052101;28;20448;-67
2022/09/29 09:46:12;;;;;;;58.47;3.57;;;;;;;;;;5052213;28;20470;-66
2022/09/29 09:48:42;;;;;;;58.73;3.10;;;;;;;;;;5051554;28;20452;-69
2022/09/29 09:51:19;;;;;;;59.90;2.80;;;;;;;;;;5051862;28;20456;-66
2022/09/29 09:53:49;;;;;;;57.83;3.00;;;;;;;;;;5052321;28;20456;-66
2022/09/29 09:56:21;;;;;;;57.87;2.60;;;;;;;;;;5051385;28;20581;-66
2022/09/29 09:59:06;;;;;;;58.13;2.70;;;;;;;;;;5051658;28;20447;-66
2022/09/29 10:01:34;;;;;;;60.40;3.43;;;;;;;;;;5051543;28;20448;-68
2022/09/29 10:04:02;;;;;;;61.33;3.40;;;;;;;;;;5051486;28;20956;-68
2022/09/29 10:06:29;;;;;;;58.30;3.00;;;;;;;;;;5051852;28;20531;-66
2022/09/29 10:08:57;;;;;;;58.37;3.07;;;;;;;;;;5051571;28;20455;-66
2022/09/29 10:11:26;;;;;;;58.97;3.23;;;;;;;;;;5051584;28;20957;-69
2022/09/29 10:13:57;;;;;;;59.10;3.23;;;;;;;;;;5051648;28;20452;-66
2022/09/29 10:16:27;;;;;;;57.97;2.40;;;;;;;;;;5051791;28;21034;-66
2022/09/29 10:18:55;;;;;;;58.60;3.10;;;;;;;;;;5051529;28;20433;-66
2022/09/29 10:21:23;;;;;;;60.90;2.83;;;;;;;;;;5051424;28;20456;-69
2022/09/29 10:23:53;;;;;;;57.70;2.77;;;;;;;;;;5051640;28;20467;-66
2022/09/29 10:26:24;;;;;;;58.30;2.90;;;;;;;;;;5051749;28;20451;-67
2022/09/29 10:28:54;;;;;;;57.80;3.30;;;;;;;;;;5051406;28;20823;-66
2022/09/29 10:31:23;;;;;;;58.10;2.80;;;;;;;;;;5051373;28;20874;-66
2022/09/29 10:33:52;;;;;;;58.60;2.73;;;;;;;;;;5051086;28;20468;-69
2022/09/29 10:36:20;;;;;;;59.27;3.40;;;;;;;;;;5051480;28;20868;-67
2022/09/29 10:38:49;;;;;;;58.80;2.90;;;;;;;;;;5050955;28;20483;-65
2022/09/29 10:41:18;;;;;;;57.90;2.80;;;;;;;;;;5051390;28;20452;-66
2022/09/29 10:43:46;;;;;;;58.60;3.00;;;;;;;;;;5053309;28;20452;-66
2022/09/29 10:46:28;;;;;;;58.37;3.43;;;;;;;;;;5054869;28;20478;-66
2022/09/29 10:49:10;;;;;;;58.00;2.77;;;;;;;;;;5054711;28;20968;-66
2022/09/29 10:51:38;;;;;;;57.77;2.83;;;;;;;;;;5054947;28;20448;-67
2022/09/29 10:54:08;;;;;;;58.40;2.87;;;;;;;;;;5054783;28;20983;-66
2022/09/29 10:56:35;;;;;;;57.77;2.57;;;;;;;;;;5054755;28;20507;-69
2022/09/29 10:59:03;;;;;;;58.10;2.80;;;;;;;;;;5054709;28;20451;-66
2022/09/29 11:01:31;;;;;;;57.23;2.10;;;;;;;;;;5045305;28;20456;-67
2022/09/29 11:04:02;;;;;;;58.97;3.13;;;;;;;;;;5034852;28;20665;-67
2022/09/29 11:06:31;;;;;;;57.97;2.70;;;;;;;;;;5034853;28;20547;-67
2022/09/29 11:09:00;;;;;;;57.53;2.50;;;;;;;;;;5034383;28;20456;-66
2022/09/29 11:11:28;;;;;;;57.67;2.40;;;;;;;;;;5034646;28;20464;-66
2022/09/29 11:13:56;;;;;;;57.90;2.70;;;;;;;;;;5034523;28;20453;-67
2022/09/29 11:16:28;;;;;;;58.40;3.57;;;;;;;;;;5034802;28;20477;-66
2022/09/29 11:18:57;;;;;;;57.27;2.50;;;;;;;;;;5034244;28;20463;-66
2022/09/29 11:21:51;;;;;;;57.77;2.67;;;;;;;;;;5034417;28;20452;-67
2022/09/29 11:24:25;;;;;;;57.90;2.40;;;;;;;;;;5034552;28;20465;-66
2022/09/29 11:26:55;;;;;;;58.50;3.27;;;;;;;;;;5034530;28;20445;-66
2022/09/29 11:29:28;;;;;;;57.97;3.13;;;;;;;;;;5034028;28;20441;-69
2022/09/29 11:32:03;;;;;;;58.37;2.90;;;;;;;;;;5034287;28;20506;-67
2022/09/29 11:34:45;;;;;;;57.87;2.60;;;;;;;;;;5034201;28;20487;-67
2022/09/29 11:37:18;;;;;;;58.27;2.50;;;;;;;;;;5049326;28;20492;-67
2022/09/29 11:39:50;;;;;;;57.23;2.20;;;;;;;;;;5052757;28;20459;-67
2022/09/29 11:42:24;;;;;;;57.07;2.10;;;;;;;;;;5053182;28;20452;-66
2022/09/29 11:44:59;;;;;;;58.17;2.90;;;;;;;;;;5053425;28;20581;-65
2022/09/29 11:47:36;;;;;;;57.47;2.20;;;;;;;;;;5053260;28;20538;-68
2022/09/29 11:50:12;;;;;;;58.00;2.40;;;;;;;;;;5052874;28;20458;-66
2022/09/29 11:52:47;;;;;;;60.70;2.37;;;;;;;;;;5053079;28;20451;-67
2022/09/29 11:55:25;;;;;;;57.60;2.23;;;;;;;;;;5052369;28;20472;-67
2022/09/29 11:57:57;;;;;;;57.47;2.23;;;;;;;;;;5050693;28;20591;-70
2022/09/29 12:00:30;;;;;;;57.27;2.30;;;;;;;;;;5052172;28;20456;-66
2022/09/29 12:03:13;;;;;;;57.90;2.23;;;;;;;;;;5052840;28;20455;-69
2022/09/29 12:05:48;;;;;;;57.47;2.13;;;;;;;;;;5052781;28;20468;-66
2022/09/29 12:08:20;;;;;;;57.07;2.13;;;;;;;;;;5052706;28;20455;-68
2022/09/29 12:10:54;;;;;;;57.00;2.40;;;;;;;;;;5052741;28;20833;-66
2022/09/29 12:13:26;;;;;;;57.30;2.60;;;;;;;;;;5053199;28;20443;-69
2022/09/29 12:15:56;;;;;;;57.40;2.00;;;;;;;;;;5052313;28;20683;-68
2022/09/29 12:18:28;;;;;;;57.27;2.20;;;;;;;;;;5052752;28;20448;-69
2022/09/29 12:20:56;;;;;;;57.57;2.00;;;;;;;;;;5052811;28;20869;-67
2022/09/29 12:23:25;;;;;;;60.20;2.63;;;;;;;;;;5052508;28;20482;-69
2022/09/29 12:25:57;;;;;;;57.77;2.50;;;;;;;;;;5052794;28;20479;-70
2022/09/29 12:28:27;;;;;;;57.67;2.27;;;;;;;;;;5052818;28;20462;-67
2022/09/29 12:30:56;;;;;;;58.10;2.50;;;;;;;;;;5049419;28;20948;-67
2022/09/29 12:33:25;;;;;;;57.30;2.20;;;;;;;;;;5052686;28;20455;-66
2022/09/29 12:35:56;;;;;;;57.63;2.50;;;;;;;;;;5052001;28;20914;-66
2022/09/29 12:38:26;;;;;;;60.47;2.43;;;;;;;;;;5052088;28;20459;-66
2022/09/29 12:41:00;;;;;;;57.60;2.40;;;;;;;;;;5052457;28;20460;-66
2022/09/29 12:43:30;;;;;;;57.40;2.10;;;;;;;;;;5052819;28;20443;-66
2022/09/29 12:46:00;;;;;;;57.47;2.10;;;;;;;;;;5052627;28;20472;-66
2022/09/29 12:48:41;;;;;;;57.33;2.30;;;;;;;;;;5052571;28;20503;-74
2022/09/29 12:51:13;;;;;;;57.37;2.10;;;;;;;;;;5052017;28;20450;-67
2022/09/29 12:53:43;;;;;;;56.87;1.90;;;;;;;;;;5052328;28;20463;-66
2022/09/29 12:56:15;;;;;;;57.43;1.90;;;;;;;;;;5051689;28;20468;-68
2022/09/29 12:58:44;;;;;;;57.57;2.17;;;;;;;;;;5051716;28;20444;-66
2022/09/29 13:01:20;;;;;;;57.33;1.73;;;;;;;;;;5052352;28;20448;-66
2022/09/29 13:04:00;;;;;;;57.67;2.13;;;;;;;;;;5051092;28;20463;-65
2022/09/29 13:06:33;;;;;;;57.70;2.53;;;;;;;;;;5051258;28;20951;-66
2022/09/29 13:09:09;;;;;;;57.37;2.00;;;;;;;;;;5051584;28;20459;-65
2022/09/29 13:11:56;;;;;;;57.30;2.30;;;;;;;;;;5050395;28;20452;-66
2022/09/29 13:14:32;;;;;;;60.43;2.80;;;;;;;;;;5051143;28;20893;-67
2022/09/29 13:17:05;;;;;;;56.87;2.20;;;;;;;;;;5051039;28;20484;-66
2022/09/29 13:19:40;;;;;;;57.17;2.00;;;;;;;;;;5050511;28;20543;-65
2022/09/29 13:22:21;;;;;;;57.07;2.20;;;;;;;;;;5051374;28;20502;-71
2022/09/29 13:24:53;;;;;;;57.37;2.50;;;;;;;;;;5051784;28;21021;-66
2022/09/29 13:27:29;;;;;;;57.60;2.30;;;;;;;;;;5052004;28;20440;-66
2022/09/29 13:29:58;;;;;;;57.73;2.30;;;;;;;;;;5051595;28;20448;-66
2022/09/29 13:32:26;;;;;;;57.67;2.40;;;;;;;;;;5051317;28;20836;-66
2022/09/29 13:34:55;;;;;;;57.77;2.50;;;;;;;;;;5048837;28;20571;-68
2022/09/29 13:37:24;;;;;;;57.60;2.37;;;;;;;;;;5051320;28;20490;-65
2022/09/29 13:39:56;;;;;;;57.80;2.20;;;;;;;;;;5050865;28;20940;-66
2022/09/29 13:42:41;;;;;;;58.70;2.90;;;;;;;;;;5051741;28;20506;-68
2022/09/29 13:45:36;;;;;;;57.60;2.53;;;;;;;;;;5051542;28;20486;-66
2022/09/29 13:48:23;;;;;;;58.37;2.47;;;;;;;;;;5051756;28;20445;-65
2022/09/29 13:50:55;;;;;;;57.60;2.47;;;;;;;;;;5051170;28;20467;-66
2022/09/29 13:53:35;;;;;;;58.40;3.00;;;;;;;;;;5051208;28;20448;-67
2022/09/29 13:56:12;;;;;;;57.83;2.50;;;;;;;;;;5051249;28;20833;-66
2022/09/29 13:58:57;;;;;;;58.30;2.60;;;;;;;;;;5050902;28;20488;-65
2022/09/29 14:01:31;;;;;;;66.23;3.10;;;;;;;;;;5051242;28;20860;-66
2022/09/29 14:03:59;;;;;;;57.53;2.30;;;;;;;;;;5051493;28;20443;-66
2022/09/29 14:06:27;;;;;;;64.13;2.90;;;;;;;;;;5051019;28;20807;-66
2022/09/29 14:08:55;;;;;;;57.77;2.40;;;;;;;;;;5051506;28;20864;-65
2022/09/29 14:11:26;;;;;;;58.10;3.03;;;;;;;;;;5051579;28;20463;-68
2022/09/29 14:13:56;;;;;;;57.90;2.10;;;;;;;;;;5051564;28;20456;-66
2022/09/29 14:16:38;;;;;;;57.67;2.53;;;;;;;;;;5051608;28;20452;-65
2022/09/29 14:19:08;;;;;;;58.50;2.50;;;;;;;;;;5054005;28;20446;-65
2022/09/29 14:21:52;;;;;;;57.97;2.40;;;;;;;;;;5055780;28;20455;-66
2022/09/29 14:24:38;;;;;;;57.70;2.17;;;;;;;;;;5055560;28;20507;-67
2022/09/29 14:27:18;;;;;;;57.87;2.20;;;;;;;;;;5055274;28;20443;-69
2022/09/29 14:29:48;;;;;;;58.07;2.10;;;;;;;;;;5055027;28;20440;-66
2022/09/29 14:32:18;;;;;;;57.97;2.37;;;;;;;;;;5055530;28;20444;-66
2022/09/29 14:34:46;;;;;;;57.87;2.73;;;;;;;;;;5055159;28;20471;-66
2022/09/29 14:37:17;;;;;;;58.07;2.73;;;;;;;;;;5055188;28;20799;-65
2022/09/29 14:40:26;;;;;;;57.97;2.40;;;;;;;;;;5054916;28;20451;-65
2022/09/29 14:42:32;;;;;;;57.97;2.50;;;;;;;;;;5055074;28;20940;-67
2022/09/29 14:53:31;;;;;;;58.40;2.90;;;;;;;;;;5054938;28;20426;-69
2022/09/29 14:56:04;;;;;;;57.70;2.60;;;;;;;;;;5054973;28;20521;-66
2022/09/29 14:58:38;;;;;;;63.60;3.20;;;;;;;;;;5054841;28;20546;-65